createdAt,value
2022-08-19T00:01:29.029Z,11.88
2022-08-19T00:04:02.540Z,12.13
2022-08-19T00:06:30.652Z,11.90
2022-08-19T00:09:01.367Z,12.30
2022-08-19T00:11:31.038Z,10.77
2022-08-19T00:13:58.147Z,12.02
2022-08-19T00:16:26.528Z,11.73
2022-08-19T00:18:54.792Z,13.25
2022-08-19T00:21:21.670Z,13.10
2022-08-19T00:23:48.326Z,12.32
2022-08-19T00:26:15.107Z,13.77
2022-08-19T00:28:42.080Z,12.18
2022-08-19T00:31:10.318Z,12.38
2022-08-19T00:33:37.732Z,11.55
2022-08-19T00:36:08.036Z,11.77
2022-08-19T00:38:38.101Z,11.45
2022-08-19T00:41:06.728Z,11.63
2022-08-19T00:43:33.388Z,11.32
2022-08-19T00:46:00.464Z,10.32
2022-08-19T00:48:27.393Z,11.77
2022-08-19T00:50:56.694Z,11.48
2022-08-19T00:53:27.332Z,11.20
2022-08-19T00:55:56.972Z,10.23
2022-08-19T00:58:29.605Z,9.63
2022-08-19T01:00:56.452Z,10.00
2022-08-19T01:03:23.674Z,10.98
2022-08-19T01:05:52.402Z,10.18
2022-08-19T01:08:20.905Z,9.63
2022-08-19T01:10:52.912Z,10.43
2022-08-19T01:13:23.200Z,10.07
2022-08-19T01:16:10.760Z,9.38
2022-08-19T01:18:41.845Z,11.27
2022-08-19T01:21:34.771Z,11.05
2022-08-19T01:24:01.638Z,11.35
2022-08-19T01:26:28.886Z,10.68
2022-08-19T01:29:00.898Z,9.70
2022-08-19T01:31:32.571Z,10.68
2022-08-19T01:34:00.700Z,9.85
2022-08-19T01:36:42.876Z,8.73
2022-08-19T01:39:13.667Z,9.25
2022-08-19T01:41:40.843Z,10.23
2022-08-19T01:44:17.591Z,9.88
2022-08-19T01:46:48.399Z,10.70
2022-08-19T01:49:16.403Z,10.85
2022-08-19T01:51:43.051Z,10.18
2022-08-19T01:54:11.496Z,10.73
2022-08-19T01:56:39.155Z,10.52
2022-08-19T01:59:19.680Z,10.40
2022-08-19T02:01:46.327Z,11.02
2022-08-19T02:04:13.062Z,11.82
2022-08-19T02:06:40.825Z,11.70
2022-08-19T02:09:09.200Z,12.05
2022-08-19T02:11:37.342Z,11.88
2022-08-19T02:14:07.307Z,12.75
2022-08-19T02:16:34.273Z,11.98
2022-08-19T02:19:03.615Z,11.38
2022-08-19T02:21:30.952Z,10.98
2022-08-19T02:23:58.412Z,11.45
2022-08-19T02:26:27.376Z,11.40
2022-08-19T02:28:55.561Z,11.63
2022-08-19T02:31:23.748Z,13.25
2022-08-19T02:33:53.325Z,13.30
2022-08-19T02:36:24.980Z,12.93
2022-08-19T02:38:54.769Z,13.68
2022-08-19T02:41:26.998Z,12.57
2022-08-19T02:44:29.749Z,13.02
2022-08-19T02:46:42.516Z,13.55
2022-08-19T02:49:09.669Z,14.05
2022-08-19T02:51:42.827Z,15.15
2022-08-19T02:54:11.960Z,14.10
2022-08-19T02:56:41.307Z,16.85
2022-08-19T02:59:16.759Z,15.68
2022-08-19T03:01:43.695Z,13.52
2022-08-19T03:04:14.034Z,16.92
2022-08-19T03:06:43.844Z,16.85
2022-08-19T03:09:11.114Z,20.42
2022-08-19T03:11:38.800Z,23.67
2022-08-19T03:14:07.776Z,24.65
2022-08-19T03:16:44.851Z,24.00
2022-08-19T03:19:11.978Z,27.10
2022-08-19T03:21:38.619Z,28.70
2022-08-19T03:24:08.740Z,25.52
2022-08-19T03:26:38.905Z,26.38
2022-08-19T03:29:06.235Z,28.60
2022-08-19T03:31:41.882Z,26.58
2022-08-19T03:34:19.667Z,25.42
2022-08-19T03:36:47.294Z,26.87
2022-08-19T03:39:14.651Z,26.48
2022-08-19T03:41:45.545Z,27.75
2022-08-19T03:44:18.118Z,25.75
2022-08-19T03:46:47.064Z,28.27
2022-08-19T03:49:14.007Z,32.33
2022-08-19T03:51:42.976Z,35.08
2022-08-19T03:54:13.917Z,32.05
2022-08-19T03:56:42.283Z,36.75
2022-08-19T03:59:12.717Z,37.20
2022-08-19T04:01:39.341Z,35.80
2022-08-19T04:04:06.619Z,34.90
2022-08-19T04:06:36.146Z,39.38
2022-08-19T04:09:09.719Z,32.53
2022-08-19T04:11:44.026Z,29.20
2022-08-19T04:16:39.004Z,37.97
2022-08-19T04:19:07.424Z,36.50
2022-08-19T04:21:35.108Z,37.05
2022-08-19T04:24:03.917Z,38.63
2022-08-19T04:26:33.424Z,31.88
2022-08-19T04:29:05.418Z,37.63
2022-08-19T04:31:37.596Z,26.80
2022-08-19T04:34:07.281Z,34.40
2022-08-19T04:36:37.062Z,36.53
2022-08-19T04:39:16.551Z,37.40
2022-08-19T04:42:02.889Z,29.63
2022-08-19T04:44:33.167Z,38.92
2022-08-19T04:47:11.288Z,34.90
2022-08-19T04:49:38.478Z,37.85
2022-08-19T04:52:05.164Z,43.03
2022-08-19T04:54:38.702Z,28.38
2022-08-19T04:57:09.631Z,37.63
2022-08-19T04:59:37.787Z,42.60
2022-08-19T05:02:05.438Z,36.95
2022-08-19T05:04:32.932Z,36.33
2022-08-19T05:07:01.624Z,38.85
2022-08-19T05:09:52.605Z,37.70
2022-08-19T05:12:16.849Z,32.58
2022-08-19T05:14:44.268Z,36.80
2022-08-19T05:17:27.185Z,35.30
2022-08-19T05:20:13.975Z,32.10
2022-08-19T05:22:41.324Z,36.58
2022-08-19T05:25:13.481Z,37.47
2022-08-19T05:27:41.992Z,29.35
2022-08-19T05:30:09.532Z,30.73
2022-08-19T05:32:36.321Z,31.02
2022-08-19T05:35:03.728Z,31.00
2022-08-19T05:37:30.582Z,29.63
2022-08-19T05:39:57.503Z,31.90
2022-08-19T05:42:24.306Z,28.92
2022-08-19T05:44:51.931Z,32.55
2022-08-19T05:47:20.576Z,34.13
2022-08-19T05:49:47.681Z,33.40
2022-08-19T05:52:18.692Z,32.45
2022-08-19T05:54:48.601Z,31.33
2022-08-19T05:57:19.158Z,30.45
2022-08-19T05:59:48.561Z,30.83
2022-08-19T06:02:15.991Z,22.98
2022-08-19T06:04:43.755Z,30.92
2022-08-19T06:07:12.310Z,29.17
2022-08-19T06:09:39.875Z,25.75
2022-08-19T06:12:07.291Z,24.83
2022-08-19T06:14:37.570Z,30.40
2022-08-19T06:17:07.636Z,25.15
2022-08-19T06:19:34.625Z,30.73
2022-08-19T06:22:08.192Z,30.17
2022-08-19T06:24:36.054Z,31.35
2022-08-19T06:27:04.002Z,29.65
2022-08-19T06:29:31.057Z,28.52
2022-08-19T06:31:59.552Z,28.58
2022-08-19T06:34:28.826Z,26.60
2022-08-19T06:36:57.273Z,28.35
2022-08-19T06:39:28.996Z,30.05
2022-08-19T06:41:58.899Z,22.83
2022-08-19T06:44:28.841Z,30.88
2022-08-19T06:46:57.496Z,21.63
2022-08-19T06:49:27.778Z,28.35
2022-08-19T06:51:55.283Z,29.40
2022-08-19T06:54:23.572Z,23.90
2022-08-19T06:56:50.364Z,23.25
2022-08-19T06:59:20.065Z,26.35
2022-08-19T07:01:50.476Z,24.50
2022-08-19T07:04:20.049Z,30.80
2022-08-19T07:06:55.267Z,29.50
2022-08-19T07:09:22.904Z,25.42
2022-08-19T07:11:53.557Z,26.13
2022-08-19T07:14:23.163Z,27.67
2022-08-19T07:16:52.485Z,29.98
2022-08-19T07:19:20.177Z,25.00
2022-08-19T07:21:49.564Z,27.45
2022-08-19T07:24:18.020Z,21.15
2022-08-19T07:26:45.797Z,24.35
2022-08-19T07:29:13.695Z,23.90
2022-08-19T07:31:40.896Z,22.80
2022-08-19T07:34:12.573Z,25.10
2022-08-19T07:36:42.494Z,27.20
2022-08-19T07:39:13.495Z,26.58
2022-08-19T07:41:40.796Z,26.58
2022-08-19T07:44:09.239Z,28.25
2022-08-19T07:46:39.186Z,24.77
2022-08-19T07:49:07.701Z,26.92
2022-08-19T07:51:36.863Z,18.05
2022-08-19T07:54:04.226Z,19.23
2022-08-19T07:56:30.936Z,24.75
2022-08-19T07:58:57.729Z,25.85
2022-08-19T08:01:28.545Z,26.48
2022-08-19T08:04:15.291Z,22.95
2022-08-19T08:07:00.743Z,22.98
2022-08-19T08:09:39.307Z,20.38
2022-08-19T08:12:32.825Z,20.75
2022-08-19T08:15:05.422Z,21.98
2022-08-19T08:17:49.502Z,23.38
2022-08-19T08:20:18.929Z,21.52
2022-08-19T08:23:06.611Z,23.02
2022-08-19T08:25:34.229Z,21.27
2022-08-19T08:28:01.242Z,17.75
2022-08-19T08:30:31.038Z,25.17
2022-08-19T08:32:59.460Z,20.02
2022-08-19T08:35:26.295Z,19.95
2022-08-19T08:37:55.948Z,22.05
2022-08-19T08:40:55.636Z,19.83
2022-08-19T08:43:32.472Z,20.13
2022-08-19T08:46:02.194Z,20.83
2022-08-19T08:48:41.563Z,18.50
2022-08-19T08:51:20.253Z,17.02
2022-08-19T08:53:49.653Z,19.20
2022-08-19T08:56:20.072Z,18.80
2022-08-19T08:59:00.636Z,18.58
2022-08-19T09:01:30.143Z,18.30
2022-08-19T09:03:57.621Z,17.90
2022-08-19T09:07:18.446Z,17.33
2022-08-19T09:10:03.889Z,17.48
2022-08-19T09:12:40.021Z,12.70
2022-08-19T09:15:13.459Z,17.17
2022-08-19T09:17:40.639Z,14.27
2022-08-19T09:20:11.327Z,14.80
2022-08-19T09:22:39.937Z,14.75
2022-08-19T09:25:09.681Z,13.55
2022-08-19T09:27:53.906Z,13.38
2022-08-19T09:30:27.852Z,14.60
2022-08-19T09:32:58.351Z,13.27
2022-08-19T09:35:28.440Z,12.32
2022-08-19T09:37:57.799Z,11.18
2022-08-19T09:40:30.087Z,11.73
2022-08-19T09:42:58.620Z,12.43
2022-08-19T09:45:25.307Z,12.52
2022-08-19T09:47:54.389Z,10.57
2022-08-19T09:50:22.384Z,10.32
2022-08-19T09:52:55.409Z,9.43
2022-08-19T09:55:31.190Z,11.15
2022-08-19T10:00:26.177Z,10.68
2022-08-19T10:02:53.219Z,12.30
2022-08-19T10:05:38.431Z,14.75
2022-08-19T10:08:13.852Z,11.88
2022-08-19T10:10:46.382Z,10.00
2022-08-19T10:13:15.813Z,10.88
2022-08-19T10:15:45.228Z,7.95
2022-08-19T10:18:16.617Z,10.88
2022-08-19T10:20:44.468Z,10.95
2022-08-19T10:23:11.101Z,11.00
2022-08-19T10:25:38.537Z,12.50
2022-08-19T10:28:06.781Z,10.68
2022-08-19T10:30:37.705Z,9.18
2022-08-19T10:33:08.666Z,10.30
2022-08-19T10:35:42.603Z,10.00
2022-08-19T10:38:31.384Z,10.52
2022-08-19T10:40:59.157Z,12.10
2022-08-19T10:43:26.104Z,11.75
2022-08-19T10:45:57.359Z,12.57
2022-08-19T10:48:24.079Z,14.45
2022-08-19T10:51:09.548Z,10.95
2022-08-19T10:53:36.263Z,13.40
2022-08-19T10:56:22.233Z,10.55
2022-08-19T10:58:49.315Z,7.10
2022-08-19T11:01:16.257Z,7.85
2022-08-19T11:03:43.318Z,7.60
2022-08-19T11:06:10.189Z,4.93
2022-08-19T11:08:38.610Z,5.07
2022-08-19T11:11:10.212Z,5.50
2022-08-19T11:13:39.862Z,6.32
2022-08-19T11:16:14.184Z,6.90
2022-08-19T11:18:45.119Z,6.40
2022-08-19T11:21:18.345Z,6.35
2022-08-19T11:23:46.420Z,6.45
2022-08-19T11:26:14.095Z,6.25
2022-08-19T11:28:41.695Z,4.82
2022-08-19T11:31:20.992Z,7.43
2022-08-19T11:33:48.109Z,7.32
2022-08-19T11:36:16.182Z,7.95
2022-08-19T11:38:43.302Z,7.93
2022-08-19T11:41:09.929Z,8.65
2022-08-19T11:43:37.772Z,10.23
2022-08-19T11:46:10.769Z,6.82
2022-08-19T11:48:37.827Z,7.53
2022-08-19T11:51:08.126Z,10.40
2022-08-19T11:53:35.313Z,8.73
2022-08-19T11:56:02.642Z,8.95
2022-08-19T11:58:30.139Z,7.93
2022-08-19T12:00:57.250Z,6.93
2022-08-19T12:03:24.004Z,7.35
2022-08-19T12:05:50.990Z,9.30
2022-08-19T12:08:18.847Z,8.30
2022-08-19T12:10:46.416Z,9.20
2022-08-19T12:13:19.411Z,9.77
2022-08-19T12:15:48.132Z,10.93
2022-08-19T12:18:15.248Z,10.15
2022-08-19T12:20:44.209Z,8.15
2022-08-19T12:23:14.276Z,11.00
2022-08-19T12:25:52.497Z,12.90
2022-08-19T12:28:26.695Z,12.85
2022-08-19T12:30:53.391Z,10.60
2022-08-19T12:33:24.985Z,7.03
2022-08-19T12:35:52.247Z,8.15
2022-08-19T12:38:19.437Z,9.13
2022-08-19T12:40:50.613Z,12.10
2022-08-19T12:43:17.688Z,12.20
2022-08-19T12:45:46.071Z,10.88
2022-08-19T12:48:33.230Z,10.65
2022-08-19T12:51:00.661Z,14.82
2022-08-19T12:53:27.278Z,9.98
2022-08-19T12:55:58.255Z,10.63
2022-08-19T12:58:27.308Z,10.60
2022-08-19T13:00:54.368Z,12.02
2022-08-19T13:03:23.274Z,13.27
2022-08-19T13:05:52.067Z,9.55
2022-08-19T13:08:18.752Z,10.20
2022-08-19T13:10:45.376Z,10.73
2022-08-19T13:13:12.309Z,10.25
2022-08-19T13:15:41.346Z,6.60
2022-08-19T13:18:10.011Z,9.60
2022-08-19T13:20:38.404Z,8.45
2022-08-19T13:23:05.713Z,9.15
2022-08-19T13:25:32.394Z,7.80
2022-08-19T13:28:00.250Z,8.55
2022-08-19T13:30:45.491Z,8.70
2022-08-19T13:33:12.440Z,10.05
2022-08-19T13:35:51.192Z,7.07
2022-08-19T13:38:21.549Z,9.13
2022-08-19T13:40:52.651Z,9.70
2022-08-19T13:43:23.755Z,9.98
2022-08-19T13:45:57.110Z,9.18
2022-08-19T13:48:27.274Z,9.17
2022-08-19T13:50:55.307Z,8.02
2022-08-19T13:53:22.579Z,7.82
2022-08-19T13:55:51.292Z,6.13
2022-08-19T13:58:17.919Z,7.82
2022-08-19T14:00:47.114Z,6.28
2022-08-19T14:03:14.280Z,7.00
2022-08-19T14:05:40.971Z,8.55
2022-08-19T14:08:07.689Z,9.00
2022-08-19T14:10:34.744Z,9.38
2022-08-19T14:13:03.763Z,9.00
2022-08-19T14:15:31.314Z,6.65
2022-08-19T14:17:57.961Z,6.10
2022-08-19T14:20:25.975Z,5.03
2022-08-19T14:22:54.758Z,3.90
2022-08-19T14:25:25.058Z,3.80
2022-08-19T14:27:51.827Z,3.15
2022-08-19T14:30:22.107Z,3.25
2022-08-19T14:32:48.823Z,3.30
2022-08-19T14:35:16.923Z,3.78
2022-08-19T14:37:46.123Z,4.28
2022-08-19T14:40:18.434Z,3.53
2022-08-19T14:42:45.303Z,3.63
2022-08-19T14:45:12.878Z,4.20
2022-08-19T14:47:40.974Z,3.55
2022-08-19T14:50:17.801Z,3.95
2022-08-19T14:52:49.043Z,4.32
2022-08-19T14:55:18.104Z,4.38
2022-08-19T14:57:45.552Z,5.10
2022-08-19T15:00:16.306Z,4.80
2022-08-19T15:02:45.131Z,6.15
2022-08-19T15:05:12.316Z,4.82
2022-08-19T15:07:39.206Z,3.25
2022-08-19T15:10:07.870Z,4.72
2022-08-19T15:12:41.015Z,4.53
2022-08-19T15:15:13.848Z,4.80
2022-08-19T15:17:45.919Z,4.20
2022-08-19T15:20:22.197Z,4.90
2022-08-19T15:22:49.290Z,4.63
2022-08-19T15:25:19.570Z,5.22
2022-08-19T15:27:46.389Z,5.32
2022-08-19T15:30:20.942Z,6.05
2022-08-19T15:32:49.198Z,6.18
2022-08-19T15:35:16.737Z,5.70
2022-08-19T15:37:43.716Z,5.55
2022-08-19T15:40:11.222Z,6.80
2022-08-19T15:42:42.318Z,4.65
2022-08-19T15:45:12.857Z,4.20
2022-08-19T15:47:40.439Z,2.45
2022-08-19T15:50:11.470Z,2.83
2022-08-19T15:52:49.657Z,2.55
2022-08-19T15:55:19.274Z,3.08
2022-08-19T15:58:30.482Z,2.83
2022-08-19T16:01:24.384Z,3.03
2022-08-19T16:04:15.647Z,2.53
2022-08-19T16:06:54.008Z,3.17
2022-08-19T16:09:27.303Z,3.13
2022-08-19T16:12:02.777Z,2.60
2022-08-19T16:14:31.679Z,2.00
2022-08-19T16:16:58.514Z,2.25
2022-08-19T16:19:25.468Z,1.90
2022-08-19T16:21:54.038Z,1.65
2022-08-19T16:24:23.673Z,1.25
2022-08-19T16:26:50.400Z,1.27
2022-08-19T16:29:34.228Z,1.55
2022-08-19T16:32:03.239Z,1.20
2022-08-19T16:34:30.653Z,1.45
2022-08-19T16:36:57.578Z,1.50
2022-08-19T16:39:24.294Z,1.30
2022-08-19T16:41:51.465Z,1.30
2022-08-19T16:44:19.495Z,1.30
2022-08-19T16:46:47.251Z,1.20
2022-08-19T16:49:54.228Z,1.55
2022-08-19T16:52:12.863Z,1.70
2022-08-19T16:54:41.927Z,1.60
2022-08-19T16:57:12.139Z,1.88
2022-08-19T16:59:48.370Z,2.13
2022-08-19T17:02:19.435Z,1.90
2022-08-19T17:04:55.975Z,1.90
2022-08-19T17:07:27.011Z,2.28
2022-08-19T17:09:53.769Z,2.13
2022-08-19T17:12:22.196Z,2.03
2022-08-19T17:14:56.180Z,2.10
2022-08-19T17:17:25.807Z,2.50
2022-08-19T17:19:55.448Z,2.33
2022-08-19T17:22:22.065Z,2.90
2022-08-19T17:24:48.771Z,3.28
2022-08-19T17:27:15.453Z,2.78
2022-08-19T17:29:46.738Z,3.13
2022-08-19T17:32:14.455Z,3.25
2022-08-19T17:34:41.173Z,3.00
2022-08-19T17:37:07.883Z,2.72
2022-08-19T17:39:39.485Z,3.22
2022-08-19T17:42:06.727Z,3.17
2022-08-19T17:44:36.519Z,3.03
2022-08-19T17:47:04.213Z,3.60
2022-08-19T17:49:31.163Z,3.70
2022-08-19T17:52:00.435Z,3.13
2022-08-19T17:54:33.429Z,3.05
2022-08-19T17:57:01.269Z,3.10
2022-08-19T17:59:30.111Z,3.25
2022-08-19T18:01:57.605Z,3.45
2022-08-19T18:04:25.994Z,3.63
2022-08-19T18:06:55.010Z,3.25
2022-08-19T18:09:27.427Z,3.30
2022-08-19T18:11:56.871Z,2.70
2022-08-19T18:14:33.452Z,2.53
2022-08-19T18:17:08.930Z,2.50
2022-08-19T18:19:43.086Z,2.42
2022-08-19T18:22:37.782Z,2.75
2022-08-19T18:25:08.689Z,2.60
2022-08-19T18:27:35.473Z,2.22
2022-08-19T18:30:03.067Z,3.55
2022-08-19T18:32:34.144Z,2.50
2022-08-19T18:35:16.939Z,2.13
2022-08-19T18:37:45.090Z,2.17
2022-08-19T18:40:33.995Z,2.22
2022-08-19T18:43:19.250Z,2.13
2022-08-19T18:46:07.116Z,2.20
2022-08-19T18:48:53.191Z,2.80
2022-08-19T18:51:20.043Z,2.40
2022-08-19T18:53:48.649Z,2.47
2022-08-19T18:56:17.606Z,2.78
2022-08-19T18:58:44.675Z,3.00
2022-08-19T19:01:20.789Z,2.80
2022-08-19T19:03:50.698Z,3.17
2022-08-19T19:06:28.081Z,3.70
2022-08-19T19:08:55.146Z,3.50
2022-08-19T19:11:27.951Z,3.55
2022-08-19T19:13:55.066Z,4.00
2022-08-19T19:16:24.459Z,4.65
2022-08-19T19:18:52.614Z,3.85
2022-08-19T19:21:24.354Z,3.92
2022-08-19T19:23:52.964Z,4.13
2022-08-19T19:26:21.561Z,4.18
2022-08-19T19:28:49.313Z,4.57
2022-08-19T19:31:26.416Z,4.78
2022-08-19T19:33:55.216Z,4.53
2022-08-19T19:36:23.226Z,5.10
2022-08-19T19:38:49.999Z,4.60
2022-08-19T19:41:24.057Z,5.45
2022-08-19T19:44:23.192Z,5.40
2022-08-19T19:46:42.745Z,5.28
2022-08-19T19:49:09.821Z,4.30
2022-08-19T19:51:39.617Z,4.25
2022-08-19T19:54:11.831Z,5.30
2022-08-19T19:56:38.481Z,4.28
2022-08-19T19:59:05.088Z,4.22
2022-08-19T20:01:31.845Z,3.92
2022-08-19T20:04:01.269Z,3.72
2022-08-19T20:06:29.082Z,3.80
2022-08-19T20:09:10.363Z,4.35
2022-08-19T20:11:49.680Z,4.13
2022-08-19T20:14:32.481Z,4.05
2022-08-19T20:17:00.079Z,3.60
2022-08-19T20:19:32.935Z,3.42
2022-08-19T20:22:00.796Z,3.25
2022-08-19T20:24:32.689Z,3.30
2022-08-19T20:27:03.035Z,3.42
2022-08-19T20:29:39.032Z,3.70
2022-08-19T20:32:09.875Z,4.15
2022-08-19T20:34:37.119Z,3.60
2022-08-19T20:37:04.633Z,3.45
2022-08-19T20:39:31.432Z,3.92
2022-08-19T20:41:58.168Z,4.30
2022-08-19T20:44:25.758Z,3.75
2022-08-19T20:46:54.797Z,3.53
2022-08-19T20:49:22.991Z,7.30
2022-08-19T20:51:54.510Z,6.70
2022-08-19T20:54:21.566Z,6.55
2022-08-19T20:56:48.393Z,5.70
2022-08-19T20:59:15.392Z,3.47
2022-08-19T21:01:42.253Z,3.80
2022-08-19T21:04:08.854Z,3.67
2022-08-19T21:06:36.963Z,3.42
2022-08-19T21:09:04.354Z,2.80
2022-08-19T21:11:32.386Z,3.13
2022-08-19T21:13:59.544Z,3.30
2022-08-19T21:16:26.355Z,3.15
2022-08-19T21:18:53.255Z,3.60
2022-08-19T21:21:20.218Z,3.90
2022-08-19T21:23:46.840Z,3.78
2022-08-19T21:26:13.477Z,3.90
2022-08-19T21:28:40.097Z,3.53
2022-08-19T21:31:10.420Z,4.20
2022-08-19T21:33:38.492Z,3.65
2022-08-19T21:36:05.535Z,3.58
2022-08-19T21:38:32.272Z,3.88
2022-08-19T21:40:59.345Z,4.03
2022-08-19T21:43:33.519Z,4.27
2022-08-19T21:46:00.326Z,4.38
2022-08-19T21:48:27.608Z,3.47
2022-08-19T21:50:54.427Z,4.05
2022-08-19T21:53:22.930Z,4.03
2022-08-19T21:55:53.440Z,4.05
2022-08-19T21:58:29.943Z,4.72
2022-08-19T22:00:58.576Z,4.55
2022-08-19T22:03:25.893Z,4.20
2022-08-19T22:05:53.254Z,5.40
2022-08-19T22:08:19.860Z,5.30
2022-08-19T22:10:46.741Z,5.38
2022-08-19T22:13:14.457Z,4.32
2022-08-19T22:15:42.322Z,5.32
2022-08-19T22:18:09.003Z,4.95
2022-08-19T22:20:35.803Z,4.88
2022-08-19T22:23:05.629Z,5.70
2022-08-19T22:25:35.776Z,5.13
2022-08-19T22:28:05.152Z,5.82
2022-08-19T22:30:34.568Z,4.72
2022-08-19T22:33:04.175Z,5.32
2022-08-19T22:35:33.668Z,4.60
2022-08-19T22:38:02.109Z,4.40
2022-08-19T22:40:30.195Z,5.50
2022-08-19T22:42:59.933Z,5.43
2022-08-19T22:45:27.804Z,4.18
2022-08-19T22:47:55.067Z,4.97
2022-08-19T22:50:21.940Z,4.03
2022-08-19T22:52:52.260Z,4.85
2022-08-19T22:55:19.271Z,4.07
2022-08-19T22:57:45.868Z,4.55
2022-08-19T23:00:13.572Z,4.70
2022-08-19T23:02:51.562Z,5.22
2022-08-19T23:05:21.769Z,4.93
2022-08-19T23:07:53.523Z,4.32
2022-08-19T23:10:27.359Z,3.92
2022-08-19T23:12:56.972Z,5.70
2022-08-19T23:15:26.825Z,4.68
2022-08-19T23:17:55.282Z,4.35
2022-08-19T23:20:26.949Z,3.97
2022-08-19T23:22:55.187Z,3.92
2022-08-19T23:25:25.214Z,4.00
2022-08-19T23:28:11.316Z,3.60
2022-08-19T23:30:46.384Z,3.70
2022-08-19T23:33:24.535Z,4.00
2022-08-19T23:35:53.144Z,4.18
2022-08-19T23:38:23.168Z,4.72
2022-08-19T23:40:56.505Z,4.88
2022-08-19T23:43:24.512Z,4.88
2022-08-19T23:45:51.968Z,5.40
2022-08-19T23:48:18.671Z,4.35
2022-08-19T23:50:46.379Z,4.00
2022-08-19T23:53:14.195Z,4.25
2022-08-19T23:55:43.780Z,4.18
2022-08-19T23:58:10.696Z,4.38
